createdAt,value
2022-08-30T00:00:23.618Z,2.28
2022-08-30T00:02:52.400Z,1.88
2022-08-30T00:05:19.801Z,2.63
2022-08-30T00:07:47.162Z,2.20
2022-08-30T00:10:14.495Z,2.00
2022-08-30T00:12:43.296Z,2.47
2022-08-30T00:15:11.075Z,2.20
2022-08-30T00:17:39.686Z,2.15
2022-08-30T00:20:09.547Z,2.13
2022-08-30T00:22:36.882Z,1.73
2022-08-30T00:25:04.428Z,1.80
2022-08-30T00:27:31.948Z,1.88
2022-08-30T00:29:59.330Z,2.00
2022-08-30T00:32:26.694Z,2.10
2022-08-30T00:34:54.349Z,1.77
2022-08-30T00:37:23.320Z,2.00
2022-08-30T00:39:50.759Z,2.15
2022-08-30T00:42:18.158Z,2.22
2022-08-30T00:44:45.622Z,2.03
2022-08-30T00:47:13.123Z,1.80
2022-08-30T00:49:40.754Z,1.95
2022-08-30T00:52:08.404Z,2.08
2022-08-30T00:54:37.095Z,2.03
2022-08-30T00:57:04.514Z,2.13
2022-08-30T00:59:31.871Z,2.10
2022-08-30T01:02:00.197Z,2.25
2022-08-30T01:04:27.664Z,2.17
2022-08-30T01:06:55.039Z,1.90
2022-08-30T01:09:22.472Z,2.13
2022-08-30T01:11:51.185Z,1.98
2022-08-30T01:14:18.539Z,1.92
2022-08-30T01:16:46.142Z,2.35
2022-08-30T01:19:17.321Z,2.03
2022-08-30T01:21:46.286Z,2.08
2022-08-30T01:24:14.969Z,1.73
2022-08-30T01:26:42.329Z,1.80
2022-08-30T01:29:10.363Z,1.92
2022-08-30T01:31:37.710Z,1.95
2022-08-30T01:34:05.176Z,2.00
2022-08-30T01:36:32.701Z,2.00
2022-08-30T01:39:00.074Z,1.88
2022-08-30T01:41:29.398Z,1.90
2022-08-30T01:43:58.183Z,2.00
2022-08-30T01:46:26.523Z,2.03
2022-08-30T01:48:56.064Z,1.63
2022-08-30T01:51:23.658Z,2.00
2022-08-30T01:53:50.998Z,2.20
2022-08-30T01:56:18.409Z,1.65
2022-08-30T01:58:47.121Z,1.70
2022-08-30T02:01:15.768Z,2.30
2022-08-30T02:03:43.531Z,2.00
2022-08-30T02:06:11.382Z,1.70
2022-08-30T02:08:40.147Z,2.28
2022-08-30T02:11:07.691Z,2.10
2022-08-30T02:13:35.203Z,1.80
2022-08-30T02:16:03.907Z,2.47
2022-08-30T02:18:31.222Z,2.33
2022-08-30T02:20:58.347Z,1.80
2022-08-30T02:23:25.721Z,2.17
2022-08-30T02:25:53.074Z,2.10
2022-08-30T02:28:20.496Z,2.05
2022-08-30T02:30:47.922Z,2.10
2022-08-30T02:33:16.929Z,2.35
2022-08-30T02:35:44.386Z,1.80
2022-08-30T02:38:11.881Z,1.88
2022-08-30T02:40:39.385Z,2.20
2022-08-30T02:43:07.206Z,2.40
2022-08-30T02:45:34.712Z,2.00
2022-08-30T02:48:02.146Z,1.92
2022-08-30T02:50:31.141Z,2.13
2022-08-30T02:52:58.555Z,2.00
2022-08-30T02:55:25.925Z,2.70
2022-08-30T02:57:53.318Z,2.47
2022-08-30T03:00:20.802Z,2.33
2022-08-30T03:02:49.222Z,2.45
2022-08-30T03:05:16.635Z,2.55
2022-08-30T03:07:47.332Z,2.38
2022-08-30T03:10:14.881Z,2.33
2022-08-30T03:12:42.394Z,2.50
2022-08-30T03:15:10.265Z,2.33
2022-08-30T03:17:37.642Z,2.00
2022-08-30T03:20:05.359Z,2.10
2022-08-30T03:22:32.750Z,2.10
2022-08-30T03:25:01.718Z,2.33
2022-08-30T03:27:29.231Z,2.45
2022-08-30T03:29:56.824Z,2.20
2022-08-30T03:32:24.202Z,2.33
2022-08-30T03:34:51.579Z,1.85
2022-08-30T03:37:23.244Z,2.08
2022-08-30T03:39:53.260Z,2.03
2022-08-30T03:42:21.936Z,2.10
2022-08-30T03:44:52.088Z,2.00
2022-08-30T03:47:20.230Z,2.20
2022-08-30T03:49:47.559Z,1.98
2022-08-30T03:52:14.934Z,1.75
2022-08-30T03:54:43.614Z,2.08
2022-08-30T03:57:13.393Z,2.30
2022-08-30T03:59:48.936Z,2.10
2022-08-30T04:02:16.414Z,1.80
2022-08-30T04:04:43.799Z,2.22
2022-08-30T04:07:11.161Z,1.85
2022-08-30T04:09:38.504Z,1.80
2022-08-30T04:12:05.965Z,2.20
2022-08-30T04:14:33.332Z,2.10
2022-08-30T04:17:02.049Z,1.75
2022-08-30T04:19:29.411Z,1.88
2022-08-30T04:21:57.257Z,1.90
2022-08-30T04:24:25.047Z,2.33
2022-08-30T04:26:52.514Z,2.47
2022-08-30T04:29:19.863Z,2.25
2022-08-30T04:31:47.322Z,2.10
2022-08-30T04:34:16.063Z,1.98
2022-08-30T04:36:47.494Z,2.03
2022-08-30T04:39:15.802Z,2.22
2022-08-30T04:41:43.204Z,2.20
2022-08-30T04:44:14.238Z,1.70
2022-08-30T04:46:47.106Z,2.08
2022-08-30T04:49:15.864Z,2.08
2022-08-30T04:51:43.222Z,1.67
2022-08-30T04:54:10.575Z,1.98
2022-08-30T04:56:38.020Z,2.08
2022-08-30T04:59:05.690Z,2.13
2022-08-30T05:01:44.847Z,2.13
2022-08-30T05:04:13.174Z,2.10
2022-08-30T05:06:41.855Z,2.00
2022-08-30T05:09:09.229Z,1.75
2022-08-30T05:11:36.887Z,2.10
2022-08-30T05:14:04.270Z,1.80
2022-08-30T05:16:31.668Z,1.92
2022-08-30T05:18:59.063Z,1.85
2022-08-30T05:21:26.944Z,1.77
2022-08-30T05:23:55.953Z,2.08
2022-08-30T05:26:25.166Z,1.90
2022-08-30T05:28:52.674Z,1.90
2022-08-30T05:31:20.955Z,2.13
2022-08-30T05:33:48.398Z,1.80
2022-08-30T05:36:16.181Z,1.70
2022-08-30T05:38:43.573Z,1.50
2022-08-30T05:41:12.836Z,1.80
2022-08-30T05:43:40.293Z,1.85
2022-08-30T05:46:08.026Z,2.30
2022-08-30T05:48:35.442Z,2.00
2022-08-30T05:51:03.880Z,1.92
2022-08-30T05:53:31.252Z,2.30
2022-08-30T05:55:58.615Z,2.45
2022-08-30T05:58:27.334Z,3.13
2022-08-30T06:00:54.687Z,2.30
2022-08-30T06:03:22.152Z,2.15
2022-08-30T06:05:49.609Z,2.55
2022-08-30T06:08:17.105Z,2.42
2022-08-30T06:10:44.585Z,2.55
2022-08-30T06:13:11.936Z,2.55
2022-08-30T06:15:40.695Z,2.00
2022-08-30T06:18:08.090Z,2.45
2022-08-30T06:20:35.435Z,2.05
2022-08-30T06:23:02.800Z,2.50
2022-08-30T06:25:41.173Z,2.28
2022-08-30T06:28:09.502Z,1.90
2022-08-30T06:30:36.967Z,1.88
2022-08-30T06:33:05.653Z,2.20
2022-08-30T06:35:38.191Z,2.10
2022-08-30T06:38:14.378Z,2.28
2022-08-30T06:40:41.796Z,2.05
2022-08-30T06:43:09.226Z,1.88
2022-08-30T06:45:37.359Z,2.08
2022-08-30T06:48:06.096Z,1.88
2022-08-30T06:50:33.473Z,1.90
2022-08-30T06:53:05.685Z,2.28
2022-08-30T06:55:33.236Z,2.22
2022-08-30T06:58:00.631Z,1.92
2022-08-30T07:00:27.979Z,1.95
2022-08-30T07:02:55.474Z,1.42
2022-08-30T07:05:24.241Z,1.90
2022-08-30T07:07:53.192Z,2.00
2022-08-30T07:10:21.327Z,1.58
2022-08-30T07:12:48.823Z,1.55
2022-08-30T07:15:16.313Z,1.63
2022-08-30T07:18:01.587Z,1.60
2022-08-30T07:20:40.408Z,1.60
2022-08-30T07:23:08.232Z,1.52
2022-08-30T07:25:36.723Z,1.70
2022-08-30T07:28:04.438Z,1.27
2022-08-30T07:30:32.411Z,1.38
2022-08-30T07:32:59.835Z,1.40
2022-08-30T07:35:27.197Z,1.50
2022-08-30T07:37:55.873Z,1.80
2022-08-30T07:40:24.402Z,1.42
2022-08-30T07:42:51.838Z,1.48
2022-08-30T07:45:19.554Z,1.58
2022-08-30T07:47:46.926Z,1.90
2022-08-30T07:50:14.328Z,1.90
2022-08-30T07:52:41.773Z,1.48
2022-08-30T07:55:11.048Z,1.13
2022-08-30T07:57:38.488Z,0.88
2022-08-30T08:00:06.300Z,1.20
2022-08-30T08:02:33.964Z,1.45
2022-08-30T08:05:01.462Z,1.20
2022-08-30T08:07:28.892Z,1.33
2022-08-30T08:09:56.243Z,1.38
2022-08-30T08:12:24.940Z,1.13
2022-08-30T08:14:52.290Z,1.42
2022-08-30T08:17:19.668Z,1.17
2022-08-30T08:19:47.021Z,1.40
2022-08-30T08:22:21.063Z,1.27
2022-08-30T08:24:49.031Z,1.88
2022-08-30T08:27:16.395Z,1.58
2022-08-30T08:29:45.085Z,1.70
2022-08-30T08:32:12.459Z,1.00
2022-08-30T08:34:39.902Z,1.40
2022-08-30T08:37:07.342Z,1.75
2022-08-30T08:39:34.709Z,1.40
2022-08-30T08:42:04.292Z,1.30
2022-08-30T08:44:38.644Z,1.38
2022-08-30T08:47:10.978Z,1.17
2022-08-30T08:49:38.377Z,1.20
2022-08-30T08:52:23.618Z,1.58
2022-08-30T08:54:52.386Z,1.27
2022-08-30T08:57:24.518Z,1.33
2022-08-30T08:59:54.234Z,1.45
2022-08-30T09:02:25.394Z,1.48
2022-08-30T09:04:54.391Z,1.27
2022-08-30T09:07:22.343Z,1.33
2022-08-30T09:09:49.701Z,1.30
2022-08-30T09:12:17.155Z,1.67
2022-08-30T09:14:46.630Z,1.60
2022-08-30T09:17:14.284Z,1.20
2022-08-30T09:19:45.172Z,1.77
2022-08-30T09:22:13.819Z,1.52
2022-08-30T09:24:42.765Z,1.27
2022-08-30T09:27:17.494Z,1.20
2022-08-30T09:29:53.680Z,1.30
2022-08-30T09:32:25.806Z,1.45
2022-08-30T09:34:54.765Z,1.33
2022-08-30T09:37:26.052Z,1.10
2022-08-30T09:39:53.412Z,1.30
2022-08-30T09:42:23.667Z,1.10
2022-08-30T09:44:51.056Z,1.20
2022-08-30T09:47:23.553Z,0.93
2022-08-30T09:49:51.806Z,1.30
2022-08-30T09:52:24.417Z,1.10
2022-08-30T09:55:05.075Z,1.00
2022-08-30T09:57:34.408Z,1.02
2022-08-30T10:00:03.807Z,1.40
2022-08-30T10:02:34.916Z,0.90
2022-08-30T10:05:04.160Z,1.40
2022-08-30T10:07:34.561Z,1.23
2022-08-30T10:10:02.669Z,1.40
2022-08-30T10:12:31.210Z,1.02
2022-08-30T10:15:00.686Z,1.00
2022-08-30T10:17:39.111Z,1.52
2022-08-30T10:20:10.434Z,0.93
2022-08-30T10:22:40.060Z,1.05
2022-08-30T10:25:10.903Z,1.23
2022-08-30T10:27:44.686Z,1.25
2022-08-30T10:30:13.841Z,1.13
2022-08-30T10:32:42.870Z,0.98
2022-08-30T10:35:19.180Z,1.20
2022-08-30T10:37:48.917Z,1.27
2022-08-30T10:40:45.065Z,0.90
2022-08-30T10:43:15.057Z,1.10
2022-08-30T10:45:42.930Z,0.95
2022-08-30T10:48:12.343Z,1.08
2022-08-30T10:50:41.530Z,0.93
2022-08-30T10:53:11.795Z,0.90
2022-08-30T10:55:49.826Z,0.82
2022-08-30T10:58:17.857Z,0.95
2022-08-30T11:00:46.716Z,1.20
2022-08-30T11:03:19.742Z,1.10
2022-08-30T11:06:01.314Z,1.10
2022-08-30T11:08:42.640Z,1.30
2022-08-30T11:11:13.175Z,1.08
2022-08-30T11:13:40.844Z,1.13
2022-08-30T11:16:08.683Z,1.20
2022-08-30T11:18:43.590Z,0.85
2022-08-30T11:21:17.713Z,0.80
2022-08-30T11:23:58.459Z,1.00
2022-08-30T11:26:40.698Z,1.17
2022-08-30T11:29:27.652Z,1.13
2022-08-30T11:31:55.067Z,1.40
2022-08-30T11:34:37.335Z,1.20
2022-08-30T11:37:09.384Z,1.08
2022-08-30T11:39:52.462Z,0.80
2022-08-30T11:42:29.298Z,0.88
2022-08-30T11:45:12.117Z,1.10
2022-08-30T11:47:40.951Z,0.98
2022-08-30T11:50:11.142Z,1.17
2022-08-30T11:52:49.075Z,0.90
2022-08-30T11:55:26.512Z,0.95
2022-08-30T11:57:56.415Z,1.10
2022-08-30T12:00:28.484Z,0.98
2022-08-30T12:02:56.589Z,1.20
2022-08-30T12:05:45.560Z,1.02
2022-08-30T12:08:40.399Z,1.00
2022-08-30T12:11:31.240Z,0.88
2022-08-30T12:13:59.959Z,0.80
2022-08-30T12:16:36.034Z,0.93
2022-08-30T12:19:10.308Z,0.90
2022-08-30T12:21:45.120Z,1.33
2022-08-30T12:24:14.704Z,1.02
2022-08-30T12:26:42.544Z,1.08
2022-08-30T12:29:16.164Z,0.90
2022-08-30T12:31:44.790Z,1.10
2022-08-30T12:34:17.808Z,1.30
2022-08-30T12:36:50.727Z,1.27
2022-08-30T12:39:18.674Z,1.00
2022-08-30T12:41:46.033Z,1.10
2022-08-30T12:44:14.675Z,0.95
2022-08-30T12:46:43.587Z,1.23
2022-08-30T12:49:11.113Z,1.40
2022-08-30T12:51:39.264Z,1.00
2022-08-30T12:54:16.166Z,1.33
2022-08-30T12:56:51.031Z,1.13
2022-08-30T12:59:37.459Z,0.95
2022-08-30T13:02:09.134Z,1.50
2022-08-30T13:04:48.342Z,0.95
2022-08-30T13:07:25.320Z,1.23
2022-08-30T13:09:57.553Z,0.90
2022-08-30T13:12:25.843Z,1.35
2022-08-30T13:14:54.047Z,2.60
2022-08-30T13:17:23.628Z,1.17
2022-08-30T13:19:58.257Z,1.60
2022-08-30T13:22:27.035Z,1.00
2022-08-30T13:24:54.541Z,1.10
2022-08-30T13:27:21.898Z,1.20
2022-08-30T13:29:49.880Z,0.98
2022-08-30T13:32:17.275Z,1.30
2022-08-30T13:34:45.965Z,1.08
2022-08-30T13:40:04.716Z,1.40
2022-08-30T13:42:32.635Z,1.17
2022-08-30T13:45:00.143Z,1.25
2022-08-30T13:47:35.330Z,0.95
2022-08-30T13:50:05.502Z,1.20
2022-08-30T13:52:32.861Z,0.93
2022-08-30T13:55:00.221Z,0.80
2022-08-30T14:00:17.839Z,1.00
2022-08-30T14:02:51.569Z,0.90
2022-08-30T14:10:58.914Z,1.15
2022-08-30T14:13:28.785Z,1.10
2022-08-30T14:18:44.922Z,1.25
2022-08-30T14:21:14.060Z,0.60
2022-08-30T14:23:41.708Z,1.08
2022-08-30T14:26:11.894Z,0.98
2022-08-30T14:28:39.245Z,1.05
2022-08-30T14:31:06.731Z,1.02
2022-08-30T14:33:34.103Z,1.20
2022-08-30T14:36:01.460Z,1.08
2022-08-30T14:38:30.159Z,0.93
2022-08-30T14:40:57.490Z,0.95
2022-08-30T14:43:26.258Z,1.17
2022-08-30T14:45:53.617Z,1.08
2022-08-30T14:48:20.993Z,1.00
2022-08-30T14:50:48.411Z,1.00
2022-08-30T14:53:15.771Z,1.10
2022-08-30T14:55:45.462Z,1.00
2022-08-30T14:58:16.941Z,1.15
2022-08-30T15:00:44.458Z,1.20
2022-08-30T15:03:12.530Z,1.00
2022-08-30T15:05:39.857Z,1.00
2022-08-30T15:08:07.224Z,1.33
2022-08-30T15:10:34.769Z,1.48
2022-08-30T15:13:04.845Z,1.58
2022-08-30T15:15:32.432Z,1.13
2022-08-30T15:17:59.762Z,1.20
2022-08-30T15:20:29.135Z,1.00
2022-08-30T15:22:56.507Z,1.20
2022-08-30T15:25:24.125Z,1.05
2022-08-30T15:27:51.443Z,1.13
2022-08-30T15:30:21.168Z,1.00
2022-08-30T15:32:48.498Z,1.30
2022-08-30T15:35:15.967Z,0.98
2022-08-30T15:37:43.898Z,1.20
2022-08-30T15:40:11.334Z,1.45
2022-08-30T15:42:38.729Z,1.27
2022-08-30T15:45:06.600Z,1.65
2022-08-30T15:47:35.322Z,1.35
2022-08-30T15:50:03.159Z,1.40
2022-08-30T15:52:30.603Z,1.30
2022-08-30T15:54:58.072Z,1.40
2022-08-30T15:57:25.445Z,1.50
2022-08-30T15:59:54.403Z,1.30
2022-08-30T16:02:21.859Z,1.35
2022-08-30T16:04:56.448Z,1.40
2022-08-30T16:07:23.802Z,1.10
2022-08-30T16:09:53.047Z,1.00
2022-08-30T16:12:23.606Z,1.63
2022-08-30T16:14:51.284Z,1.88
2022-08-30T16:17:18.639Z,1.50
2022-08-30T16:19:46.006Z,2.20
2022-08-30T16:22:15.855Z,2.35
2022-08-30T16:24:49.647Z,2.63
2022-08-30T16:27:17.044Z,2.08
2022-08-30T16:29:44.406Z,2.67
2022-08-30T16:32:11.724Z,2.40
2022-08-30T16:34:39.142Z,2.40
2022-08-30T16:37:06.475Z,2.10
2022-08-30T16:39:35.400Z,2.40
2022-08-30T16:42:03.282Z,2.17
2022-08-30T16:44:31.679Z,1.90
2022-08-30T16:46:59.095Z,1.60
2022-08-30T16:49:26.501Z,1.70
2022-08-30T16:51:53.986Z,1.20
2022-08-30T16:54:21.748Z,1.63
2022-08-30T16:56:50.483Z,1.50
2022-08-30T16:59:17.851Z,1.50
2022-08-30T17:01:46.356Z,1.20
2022-08-30T17:07:02.947Z,2.50
2022-08-30T17:09:30.475Z,2.28
2022-08-30T17:11:59.168Z,1.92
2022-08-30T17:14:27.822Z,1.50
2022-08-30T17:16:56.358Z,1.80
2022-08-30T17:19:26.947Z,1.52
2022-08-30T17:21:56.313Z,1.38
2022-08-30T17:24:24.577Z,1.40
2022-08-30T17:26:52.055Z,1.10
2022-08-30T17:29:21.793Z,1.08
2022-08-30T17:31:51.182Z,1.10
2022-08-30T17:34:21.073Z,1.20
2022-08-30T17:36:49.489Z,1.10
2022-08-30T17:39:16.838Z,0.82
2022-08-30T17:41:45.483Z,1.00
2022-08-30T17:44:17.779Z,1.15
2022-08-30T17:46:46.919Z,2.03
2022-08-30T17:49:15.112Z,1.40
2022-08-30T17:51:42.920Z,1.20
2022-08-30T17:54:10.369Z,1.15
2022-08-30T17:56:37.763Z,1.10
2022-08-30T17:59:07.856Z,1.00
2022-08-30T18:01:36.578Z,1.10
2022-08-30T18:04:06.040Z,1.20
2022-08-30T18:06:34.052Z,1.30
2022-08-30T18:09:01.408Z,1.30
2022-08-30T18:11:28.848Z,0.95
2022-08-30T18:13:56.208Z,1.10
2022-08-30T18:16:26.461Z,0.98
2022-08-30T18:18:56.946Z,1.10
2022-08-30T18:21:28.458Z,1.05
2022-08-30T18:23:56.302Z,1.40
2022-08-30T18:26:24.141Z,1.40
2022-08-30T18:28:51.832Z,1.58
2022-08-30T18:31:19.190Z,1.60
2022-08-30T18:33:47.514Z,1.30
2022-08-30T18:36:14.886Z,1.40
2022-08-30T18:38:44.530Z,1.77
2022-08-30T18:41:13.738Z,1.58
2022-08-30T18:43:41.123Z,1.20
2022-08-30T18:46:09.452Z,1.20
2022-08-30T18:48:36.979Z,1.25
2022-08-30T18:51:04.508Z,1.35
2022-08-30T18:53:32.815Z,1.27
2022-08-30T18:56:01.618Z,1.25
2022-08-30T18:58:28.999Z,1.27
2022-08-30T19:00:57.062Z,1.55
2022-08-30T19:03:24.502Z,1.10
2022-08-30T19:05:51.882Z,1.40
2022-08-30T19:08:19.443Z,1.38
2022-08-30T19:10:46.934Z,1.17
2022-08-30T19:13:16.967Z,1.27
2022-08-30T19:15:44.430Z,1.00
2022-08-30T19:18:17.490Z,1.30
2022-08-30T19:20:45.107Z,1.10
2022-08-30T19:23:12.499Z,0.90
2022-08-30T19:25:40.283Z,1.33
2022-08-30T19:28:07.659Z,1.10
2022-08-30T19:30:36.575Z,1.48
2022-08-30T19:33:03.979Z,1.33
2022-08-30T19:35:33.110Z,1.13
2022-08-30T19:38:00.454Z,0.80
2022-08-30T19:40:28.530Z,0.85
2022-08-30T19:42:56.644Z,1.08
2022-08-30T19:45:24.749Z,0.90
2022-08-30T19:47:53.503Z,0.82
2022-08-30T19:50:21.006Z,1.00
2022-08-30T19:52:53.744Z,0.90
2022-08-30T19:55:28.189Z,0.98
2022-08-30T19:57:57.356Z,1.40
2022-08-30T20:00:24.717Z,0.90
2022-08-30T20:02:53.475Z,1.10
2022-08-30T20:05:21.958Z,1.27
2022-08-30T20:07:51.612Z,1.80
2022-08-30T20:10:20.448Z,2.03
2022-08-30T20:12:50.162Z,1.73
2022-08-30T20:15:18.097Z,2.35
2022-08-30T20:18:03.420Z,1.73
2022-08-30T20:20:36.268Z,1.35
2022-08-30T20:23:04.336Z,1.75
2022-08-30T20:24:23.330Z,1.90
2022-08-30T20:25:32.466Z,1.20
2022-08-30T20:28:01.253Z,1.30
2022-08-30T20:30:28.604Z,1.13
2022-08-30T20:32:57.150Z,1.00
2022-08-30T20:35:24.606Z,0.85
2022-08-30T20:37:53.291Z,1.38
2022-08-30T20:40:21.751Z,1.17
2022-08-30T20:42:49.755Z,0.80
2022-08-30T20:45:17.473Z,1.30
2022-08-30T20:47:44.894Z,1.25
2022-08-30T20:50:13.962Z,1.00
2022-08-30T20:52:41.485Z,1.08
2022-08-30T20:55:10.981Z,1.10
2022-08-30T20:57:38.351Z,1.10
2022-08-30T21:00:06.041Z,1.20
2022-08-30T21:02:35.454Z,0.85
2022-08-30T21:05:03.050Z,0.90
2022-08-30T21:07:30.394Z,1.13
2022-08-30T21:09:57.738Z,0.73
2022-08-30T21:12:26.439Z,1.10
2022-08-30T21:14:53.797Z,1.00
2022-08-30T21:17:21.138Z,0.75
2022-08-30T21:19:48.522Z,1.02
2022-08-30T21:22:15.892Z,0.80
2022-08-30T21:24:43.218Z,1.10
2022-08-30T21:27:11.773Z,1.00
2022-08-30T21:29:40.545Z,1.13
2022-08-30T21:32:07.889Z,1.10
2022-08-30T21:34:55.925Z,1.10
2022-08-30T21:37:22.333Z,1.30
2022-08-30T21:39:49.790Z,1.00
2022-08-30T21:42:18.189Z,1.10
2022-08-30T21:44:46.866Z,1.00
2022-08-30T21:47:14.203Z,1.45
2022-08-30T21:49:50.614Z,1.35
2022-08-30T21:52:18.003Z,1.10
2022-08-30T21:54:45.657Z,1.20
2022-08-30T21:57:13.644Z,1.13
2022-08-30T21:59:41.635Z,1.48
2022-08-30T22:02:12.056Z,1.10
2022-08-30T22:04:40.644Z,0.90
2022-08-30T22:07:08.291Z,1.40
2022-08-30T22:09:35.665Z,1.33
2022-08-30T22:12:03.199Z,1.00
2022-08-30T22:14:34.284Z,1.25
2022-08-30T22:17:02.493Z,1.10
2022-08-30T22:19:33.622Z,1.30
2022-08-30T22:22:01.866Z,1.10
2022-08-30T22:24:32.276Z,1.40
2022-08-30T22:27:00.548Z,1.17
2022-08-30T22:29:28.871Z,1.13
2022-08-30T22:31:56.379Z,2.08
2022-08-30T22:34:23.859Z,1.17
2022-08-30T22:36:52.576Z,1.23
2022-08-30T22:39:19.968Z,1.35
2022-08-30T22:41:47.357Z,1.40
2022-08-30T22:44:14.706Z,1.25
2022-08-30T22:46:42.085Z,0.98
2022-08-30T22:49:09.552Z,1.13
2022-08-30T22:51:36.967Z,1.20
2022-08-30T22:54:05.785Z,1.30
2022-08-30T22:56:33.533Z,1.25
2022-08-30T22:59:00.947Z,1.08
2022-08-30T23:01:29.019Z,1.33
2022-08-30T23:03:56.594Z,1.25
2022-08-30T23:06:23.946Z,1.13
2022-08-30T23:08:51.253Z,1.20
2022-08-30T23:11:19.951Z,1.23
2022-08-30T23:13:47.469Z,0.80
2022-08-30T23:16:15.072Z,1.35
2022-08-30T23:18:42.990Z,1.10
2022-08-30T23:21:10.977Z,1.20
2022-08-30T23:23:56.235Z,1.25
2022-08-30T23:26:42.448Z,1.23
2022-08-30T23:29:27.218Z,0.90
2022-08-30T23:32:12.108Z,1.00
2022-08-30T23:34:56.853Z,1.15
2022-08-30T23:37:41.712Z,1.25
2022-08-30T23:40:27.144Z,1.63
2022-08-30T23:43:13.566Z,1.10
2022-08-30T23:45:58.426Z,1.35
2022-08-30T23:48:50.922Z,1.10
2022-08-30T23:51:37.293Z,1.27
2022-08-30T23:54:21.995Z,1.35
2022-08-30T23:57:06.726Z,1.48
2022-08-30T23:59:52.800Z,1.20
